createdAt,value
2018-09-29T00:00:09.430Z,99.99
2018-09-29T00:01:18.332Z,99.99
2018-09-29T00:02:26.968Z,99.99
2018-09-29T00:03:35.871Z,99.99
2018-09-29T00:04:44.499Z,99.99
2018-09-29T00:05:53.693Z,99.99
2018-09-29T00:07:02.327Z,99.99
2018-09-29T00:08:10.976Z,99.99
2018-09-29T00:09:19.609Z,99.99
2018-09-29T00:10:28.244Z,99.99
2018-09-29T00:11:36.880Z,99.99
2018-09-29T00:12:46.042Z,99.99
2018-09-29T00:13:54.689Z,99.99
2018-09-29T00:15:03.322Z,99.99
2018-09-29T00:16:12.232Z,99.99
2018-09-29T00:17:20.860Z,99.99
2018-09-29T00:18:29.511Z,99.99
2018-09-29T00:19:38.142Z,99.99
2018-09-29T00:20:46.785Z,99.99
2018-09-29T00:21:55.415Z,99.99
2018-09-29T00:23:04.061Z,99.99
2018-09-29T00:24:12.705Z,99.99
2018-09-29T00:25:21.342Z,99.99
2018-09-29T00:26:30.235Z,99.99
2018-09-29T00:27:39.662Z,99.99
2018-09-29T00:28:48.306Z,99.99
2018-09-29T00:29:56.949Z,99.99
2018-09-29T00:31:05.855Z,99.99
2018-09-29T00:32:14.747Z,99.99
2018-09-29T00:33:23.392Z,99.99
2018-09-29T00:34:32.026Z,99.99
2018-09-29T00:35:40.675Z,99.99
2018-09-29T00:36:49.564Z,99.99
2018-09-29T00:37:58.205Z,99.99
2018-09-29T00:39:07.370Z,99.99
2018-09-29T00:40:16.013Z,99.99
2018-09-29T00:41:24.642Z,99.99
2018-09-29T00:42:33.282Z,99.99
2018-09-29T00:43:41.917Z,99.99
2018-09-29T00:44:50.562Z,99.99
2018-09-29T00:45:59.199Z,99.99
2018-09-29T00:47:07.832Z,99.99
2018-09-29T00:48:16.469Z,99.99
2018-09-29T00:49:25.103Z,99.99
2018-09-29T00:50:33.747Z,99.99
2018-09-29T00:51:42.384Z,99.99
2018-09-29T00:52:51.282Z,99.99
2018-09-29T00:53:59.915Z,99.99
2018-09-29T00:55:08.557Z,99.99
2018-09-29T00:56:17.192Z,99.99
2018-09-29T00:57:25.830Z,99.99
2018-09-29T00:58:34.465Z,99.99
2018-09-29T00:59:43.104Z,99.99
2018-09-29T01:00:51.741Z,99.99
2018-09-29T01:02:00.380Z,99.99
2018-09-29T01:03:09.013Z,99.99
2018-09-29T01:04:17.656Z,99.99
2018-09-29T01:05:26.553Z,99.99
2018-09-29T01:06:35.202Z,99.99
2018-09-29T01:07:43.835Z,99.99
2018-09-29T01:08:52.470Z,99.99
2018-09-29T01:10:01.107Z,99.99
2018-09-29T01:11:09.745Z,99.99
2018-09-29T01:12:18.389Z,99.99
2018-09-29T01:13:27.024Z,99.99
2018-09-29T01:14:35.659Z,99.99
2018-09-29T01:15:44.295Z,99.99
2018-09-29T01:16:52.937Z,99.99
2018-09-29T01:18:01.571Z,99.99
2018-09-29T01:19:10.741Z,99.99
2018-09-29T01:20:19.374Z,99.99
2018-09-29T01:21:28.026Z,99.99
2018-09-29T01:22:36.926Z,99.99
2018-09-29T01:23:45.564Z,99.99
2018-09-29T01:24:54.202Z,99.99
2018-09-29T01:26:02.843Z,99.99
2018-09-29T01:27:11.486Z,99.99
2018-09-29T01:28:20.122Z,99.99
2018-09-29T01:29:28.761Z,99.99
2018-09-29T01:30:37.394Z,99.99
2018-09-29T01:31:46.036Z,99.99
2018-09-29T01:32:54.674Z,99.99
2018-09-29T01:34:03.313Z,99.99
2018-09-29T01:35:11.953Z,99.99
2018-09-29T01:36:20.595Z,99.99
2018-09-29T01:37:29.229Z,99.99
2018-09-29T01:38:37.877Z,99.99
2018-09-29T01:39:46.766Z,99.99
2018-09-29T01:40:55.408Z,99.99
2018-09-29T01:42:04.045Z,99.99
2018-09-29T01:43:13.218Z,99.99
2018-09-29T01:44:21.856Z,99.99
2018-09-29T01:45:30.489Z,99.99
2018-09-29T01:46:39.129Z,99.99
2018-09-29T01:47:48.033Z,99.99
2018-09-29T01:48:56.946Z,99.99
2018-09-29T01:50:05.836Z,99.99
2018-09-29T01:51:14.477Z,99.99
2018-09-29T01:52:23.109Z,99.99
2018-09-29T01:53:31.755Z,99.99
2018-09-29T01:54:40.387Z,99.99
2018-09-29T01:55:49.025Z,99.99
2018-09-29T01:56:57.660Z,99.99
2018-09-29T01:58:06.571Z,99.99
2018-09-29T01:59:15.208Z,99.99
2018-09-29T02:00:23.840Z,99.99
2018-09-29T02:01:32.474Z,99.99
2018-09-29T02:02:41.111Z,99.99
2018-09-29T02:03:50.021Z,99.99
2018-09-29T02:04:58.654Z,99.99
2018-09-29T02:06:07.302Z,99.99
2018-09-29T02:07:15.932Z,99.99
2018-09-29T02:08:24.575Z,99.99
2018-09-29T02:09:33.209Z,99.99
2018-09-29T02:10:42.116Z,99.99
2018-09-29T02:11:50.742Z,99.99
2018-09-29T02:12:59.393Z,99.99
2018-09-29T02:14:08.035Z,99.99
2018-09-29T02:15:16.667Z,99.99
2018-09-29T02:16:25.295Z,99.99
2018-09-29T02:17:33.935Z,99.99
2018-09-29T02:18:42.582Z,99.99
2018-09-29T02:19:51.215Z,99.99
2018-09-29T02:20:59.855Z,99.99
2018-09-29T02:22:08.484Z,99.99
2018-09-29T02:23:17.126Z,99.99
2018-09-29T02:24:25.758Z,99.99
2018-09-29T02:25:34.405Z,99.99
2018-09-29T02:26:43.040Z,99.99
2018-09-29T02:27:51.682Z,99.99
2018-09-29T02:29:00.436Z,99.99
2018-09-29T02:30:08.963Z,99.99
2018-09-29T02:31:17.593Z,99.99
2018-09-29T02:32:26.236Z,99.99
2018-09-29T02:33:34.880Z,99.99
2018-09-29T02:34:44.063Z,99.99
2018-09-29T02:35:52.704Z,99.99
2018-09-29T02:37:01.341Z,99.99
2018-09-29T02:38:09.977Z,99.99
2018-09-29T02:39:18.612Z,99.99
2018-09-29T02:40:27.269Z,99.99
2018-09-29T02:41:36.162Z,99.99
2018-09-29T02:42:45.080Z,99.99
2018-09-29T02:43:53.702Z,99.99
2018-09-29T02:45:02.620Z,99.99
2018-09-29T02:46:11.264Z,99.99
2018-09-29T02:47:19.898Z,99.99
2018-09-29T02:48:28.548Z,99.99
2018-09-29T02:49:37.443Z,99.99
2018-09-29T02:50:46.675Z,99.99
2018-09-29T02:51:55.305Z,99.99
2018-09-29T02:53:03.960Z,99.99
2018-09-29T02:54:12.856Z,99.99
2018-09-29T02:55:21.489Z,99.99
2018-09-29T02:56:30.126Z,99.99
2018-09-29T02:57:38.765Z,99.99
2018-09-29T02:58:47.682Z,99.99
2018-09-29T02:59:56.316Z,99.99
2018-09-29T03:01:04.965Z,99.99
2018-09-29T03:02:13.594Z,99.99
2018-09-29T03:03:22.239Z,99.99
2018-09-29T03:04:30.881Z,99.99
2018-09-29T03:05:39.528Z,99.99
2018-09-29T03:06:48.414Z,99.99
2018-09-29T03:07:57.335Z,99.99
2018-09-29T03:09:06.240Z,99.99
2018-09-29T03:10:15.157Z,99.99
2018-09-29T03:11:23.786Z,99.99
2018-09-29T03:12:32.425Z,99.99
2018-09-29T03:13:41.067Z,99.99
2018-09-29T03:14:49.705Z,99.99
2018-09-29T03:15:58.346Z,99.99
2018-09-29T03:17:06.979Z,99.99
2018-09-29T03:18:15.620Z,99.99
2018-09-29T03:19:24.342Z,99.99
2018-09-29T03:20:32.900Z,99.99
2018-09-29T03:21:41.531Z,99.99
2018-09-29T03:22:50.181Z,99.99
2018-09-29T03:23:58.816Z,99.99
2018-09-29T03:25:07.724Z,99.99
2018-09-29T03:26:16.363Z,99.99
2018-09-29T03:27:25.274Z,99.99
2018-09-29T03:28:34.190Z,99.99
2018-09-29T03:29:42.835Z,99.99
2018-09-29T03:30:51.738Z,99.99
2018-09-29T03:32:00.534Z,99.99
2018-09-29T03:33:09.006Z,99.99
2018-09-29T03:34:17.909Z,99.99
2018-09-29T03:35:26.879Z,99.99
2018-09-29T03:36:35.515Z,99.99
2018-09-29T03:37:44.161Z,99.99
2018-09-29T03:38:52.788Z,99.99
2018-09-29T03:40:01.701Z,99.99
2018-09-29T03:41:10.334Z,99.99
2018-09-29T03:42:18.974Z,99.99
2018-09-29T03:43:27.608Z,99.99
2018-09-29T03:44:36.250Z,99.99
2018-09-29T03:45:44.887Z,99.99
2018-09-29T03:46:54.055Z,99.99
2018-09-29T03:48:03.240Z,99.99
2018-09-29T03:49:12.138Z,99.99
2018-09-29T03:50:21.042Z,99.99
2018-09-29T03:51:29.683Z,99.99
2018-09-29T03:52:38.321Z,99.99
2018-09-29T03:53:47.231Z,99.99
2018-09-29T03:54:55.867Z,99.99
2018-09-29T03:56:04.519Z,99.99
2018-09-29T03:57:13.695Z,99.99
2018-09-29T03:58:22.587Z,99.99
2018-09-29T03:59:31.225Z,99.99
2018-09-29T04:00:40.133Z,99.99
2018-09-29T04:01:48.774Z,99.99
2018-09-29T04:02:57.674Z,99.99
2018-09-29T04:04:06.315Z,99.99
2018-09-29T04:05:14.957Z,99.99
2018-09-29T04:06:23.605Z,99.99
2018-09-29T04:07:32.504Z,99.99
2018-09-29T04:08:41.404Z,99.99
2018-09-29T04:09:50.041Z,99.99
2018-09-29T04:10:58.676Z,99.99
2018-09-29T04:12:07.577Z,99.99
2018-09-29T04:13:16.215Z,99.99
2018-09-29T04:14:24.852Z,99.99
2018-09-29T04:15:33.490Z,99.99
2018-09-29T04:16:42.137Z,99.99
2018-09-29T04:17:51.035Z,99.99
2018-09-29T04:18:59.674Z,99.99
2018-09-29T04:20:08.307Z,99.99
2018-09-29T04:21:17.210Z,99.99
2018-09-29T04:22:25.845Z,99.99
2018-09-29T04:23:34.483Z,99.99
2018-09-29T04:24:43.381Z,99.99
2018-09-29T04:25:52.278Z,99.99
2018-09-29T04:27:00.916Z,99.99
2018-09-29T04:28:09.815Z,99.99
2018-09-29T04:29:18.460Z,99.99
2018-09-29T04:30:27.091Z,99.99
2018-09-29T04:31:35.726Z,99.99
2018-09-29T04:32:44.365Z,99.99
2018-09-29T04:33:53.009Z,99.99
2018-09-29T04:35:01.641Z,99.99
2018-09-29T04:36:10.277Z,99.99
2018-09-29T04:37:18.913Z,99.99
2018-09-29T04:38:27.553Z,99.99
2018-09-29T04:39:36.445Z,99.99
2018-09-29T04:40:45.084Z,99.99
2018-09-29T04:41:53.720Z,99.99
2018-09-29T04:43:02.400Z,99.99
2018-09-29T04:44:10.988Z,99.99
2018-09-29T04:45:19.633Z,99.99
2018-09-29T04:46:28.270Z,99.99
2018-09-29T04:47:36.911Z,99.99
2018-09-29T04:48:45.536Z,99.99
2018-09-29T04:49:54.176Z,99.99
2018-09-29T04:51:02.810Z,99.99
2018-09-29T04:52:11.718Z,99.99
2018-09-29T04:53:20.346Z,99.99
2018-09-29T04:54:28.988Z,99.99
2018-09-29T04:55:37.886Z,99.99
2018-09-29T04:56:46.531Z,99.99
2018-09-29T04:57:55.158Z,99.99
2018-09-29T04:59:03.805Z,99.99
2018-09-29T05:00:12.435Z,99.99
2018-09-29T05:01:21.080Z,99.99
2018-09-29T05:02:29.983Z,99.99
2018-09-29T05:03:38.614Z,99.99
2018-09-29T05:04:47.246Z,99.99
2018-09-29T05:05:56.143Z,99.99
2018-09-29T05:07:04.792Z,99.99
2018-09-29T05:08:13.424Z,99.99
2018-09-29T05:09:22.065Z,99.99
2018-09-29T05:10:30.692Z,99.99
2018-09-29T05:11:39.336Z,99.99
2018-09-29T05:12:47.967Z,99.99
2018-09-29T05:13:56.885Z,99.99
2018-09-29T05:15:05.488Z,99.99
2018-09-29T05:16:14.134Z,99.99
2018-09-29T05:17:22.767Z,99.99
2018-09-29T05:18:31.405Z,99.99
2018-09-29T05:19:40.032Z,99.99
2018-09-29T05:20:48.670Z,99.99
2018-09-29T05:21:57.573Z,99.99
2018-09-29T05:23:06.254Z,99.99
2018-09-29T05:24:15.190Z,99.99
2018-09-29T05:25:24.082Z,99.99
2018-09-29T05:26:32.985Z,99.99
2018-09-29T05:27:41.622Z,99.99
2018-09-29T05:28:50.530Z,99.99
2018-09-29T05:29:59.162Z,99.99
2018-09-29T05:31:08.074Z,99.99
2018-09-29T05:32:16.971Z,99.99
2018-09-29T05:33:25.880Z,99.99
2018-09-29T05:34:34.508Z,99.99
2018-09-29T05:35:43.144Z,99.99
2018-09-29T05:36:51.779Z,99.99
2018-09-29T05:38:00.424Z,99.99
2018-09-29T05:39:09.059Z,99.99
2018-09-29T05:40:17.692Z,99.99
2018-09-29T05:41:26.336Z,99.99
2018-09-29T05:42:34.966Z,99.99
2018-09-29T05:43:43.606Z,99.99
2018-09-29T05:44:52.242Z,99.99
2018-09-29T05:46:01.142Z,99.99
2018-09-29T05:47:09.777Z,99.99
2018-09-29T05:48:18.430Z,99.99
2018-09-29T05:49:27.059Z,99.99
2018-09-29T05:50:35.689Z,99.99
2018-09-29T05:51:44.322Z,99.99
2018-09-29T05:52:52.963Z,99.99
2018-09-29T05:54:01.678Z,99.99
2018-09-29T05:55:10.236Z,99.99
2018-09-29T05:56:18.868Z,99.99
2018-09-29T05:57:27.509Z,99.99
2018-09-29T05:58:36.141Z,99.99
2018-09-29T05:59:44.780Z,99.99
2018-09-29T06:00:53.417Z,99.99
2018-09-29T06:02:02.046Z,99.99
2018-09-29T06:03:10.956Z,99.99
2018-09-29T06:04:19.855Z,99.99
2018-09-29T06:05:28.571Z,99.99
2018-09-29T06:06:37.129Z,99.99
2018-09-29T06:07:45.773Z,99.99
2018-09-29T06:08:54.398Z,99.99
2018-09-29T06:10:03.052Z,99.99
2018-09-29T06:11:11.688Z,99.99
2018-09-29T06:12:20.323Z,99.99
2018-09-29T06:13:29.227Z,99.99
2018-09-29T06:14:37.864Z,99.99
2018-09-29T06:15:46.499Z,99.99
2018-09-29T06:16:55.134Z,99.99
2018-09-29T06:18:03.770Z,99.99
2018-09-29T06:19:12.417Z,99.99
2018-09-29T06:20:21.050Z,99.99
2018-09-29T06:21:29.951Z,99.99
2018-09-29T06:22:38.856Z,99.99
2018-09-29T06:23:47.489Z,99.99
2018-09-29T06:24:56.132Z,99.99
2018-09-29T06:26:04.768Z,99.99
2018-09-29T06:27:13.404Z,99.99
2018-09-29T06:28:22.034Z,99.99
2018-09-29T06:29:30.675Z,99.99
2018-09-29T06:30:39.310Z,99.99
2018-09-29T06:31:47.951Z,99.99
2018-09-29T06:32:56.851Z,99.99
2018-09-29T06:34:05.546Z,99.99
2018-09-29T06:35:14.391Z,99.99
2018-09-29T06:36:23.030Z,99.99
2018-09-29T06:37:31.670Z,99.99
2018-09-29T06:38:40.306Z,99.99
2018-09-29T06:39:48.947Z,99.99
2018-09-29T06:40:57.638Z,99.99
2018-09-29T06:42:06.223Z,99.99
2018-09-29T06:43:15.120Z,99.99
2018-09-29T06:44:23.754Z,99.99
2018-09-29T06:45:32.392Z,99.99
2018-09-29T06:46:41.022Z,99.99
2018-09-29T06:47:49.990Z,99.99
2018-09-29T06:48:58.566Z,99.99
2018-09-29T06:50:07.469Z,99.99
2018-09-29T06:51:16.104Z,99.99
2018-09-29T06:52:24.742Z,99.99
2018-09-29T06:53:33.646Z,99.99
2018-09-29T06:54:42.285Z,99.99
2018-09-29T06:55:50.926Z,99.99
2018-09-29T06:56:59.561Z,99.99
2018-09-29T06:58:08.200Z,99.99
2018-09-29T06:59:16.836Z,99.99
2018-09-29T07:00:25.477Z,99.99
2018-09-29T07:01:34.110Z,99.99
2018-09-29T07:02:42.749Z,99.99
2018-09-29T07:03:51.384Z,99.99
2018-09-29T07:05:00.025Z,99.99
2018-09-29T07:06:08.656Z,99.99
2018-09-29T07:07:17.301Z,99.99
2018-09-29T07:08:25.938Z,99.99
2018-09-29T07:09:34.577Z,99.99
2018-09-29T07:10:43.217Z,99.99
2018-09-29T07:11:51.857Z,99.99
2018-09-29T07:13:00.571Z,99.99
2018-09-29T07:14:09.127Z,99.99
2018-09-29T07:15:17.768Z,99.99
2018-09-29T07:16:26.402Z,99.99
2018-09-29T07:17:35.044Z,99.99
2018-09-29T07:18:43.671Z,99.99
2018-09-29T07:19:52.312Z,99.99
2018-09-29T07:21:00.950Z,99.99
2018-09-29T07:22:09.588Z,99.99
2018-09-29T07:23:18.349Z,99.99
2018-09-29T07:24:26.863Z,99.99
2018-09-29T07:25:35.569Z,99.99
2018-09-29T07:26:44.141Z,99.99
2018-09-29T07:27:52.778Z,99.99
2018-09-29T07:29:01.413Z,99.99
2018-09-29T07:30:10.318Z,99.99
2018-09-29T07:31:19.011Z,99.99
2018-09-29T07:32:27.604Z,99.99
2018-09-29T07:33:36.239Z,99.99
2018-09-29T07:34:45.141Z,99.99
2018-09-29T07:35:53.778Z,99.99
2018-09-29T07:37:02.422Z,99.99
2018-09-29T07:38:11.316Z,99.99
2018-09-29T07:39:19.957Z,99.99
2018-09-29T07:40:28.590Z,99.99
2018-09-29T07:41:37.239Z,99.99
2018-09-29T07:42:45.868Z,99.99
2018-09-29T07:43:54.512Z,99.99
2018-09-29T07:45:03.148Z,99.99
2018-09-29T07:46:11.795Z,99.99
2018-09-29T07:47:20.431Z,99.99
2018-09-29T07:48:29.065Z,99.99
2018-09-29T07:49:37.702Z,99.99
2018-09-29T07:50:46.341Z,99.99
2018-09-29T07:51:54.987Z,99.99
2018-09-29T07:53:03.622Z,99.99
2018-09-29T07:54:12.267Z,99.99
2018-09-29T07:55:20.897Z,99.99
2018-09-29T07:56:29.575Z,99.99
2018-09-29T07:57:38.181Z,99.99
2018-09-29T07:58:47.105Z,99.99
2018-09-29T07:59:55.743Z,99.99
2018-09-29T08:01:04.387Z,99.99
2018-09-29T08:02:13.029Z,99.99
2018-09-29T08:03:21.930Z,99.99
2018-09-29T08:04:30.556Z,99.99
2018-09-29T08:05:39.198Z,99.99
2018-09-29T08:06:47.840Z,99.99
2018-09-29T08:07:56.482Z,99.99
2018-09-29T08:09:05.122Z,99.99
2018-09-29T08:10:13.752Z,99.99
2018-09-29T08:11:22.396Z,99.99
2018-09-29T08:12:31.091Z,99.99
2018-09-29T08:13:39.685Z,99.99
2018-09-29T08:14:48.312Z,99.99
2018-09-29T08:15:56.955Z,99.99
2018-09-29T08:17:05.592Z,99.99
2018-09-29T08:18:14.507Z,99.99
2018-09-29T08:19:23.138Z,99.99
2018-09-29T08:20:31.780Z,99.99
2018-09-29T08:21:40.417Z,99.99
2018-09-29T08:22:49.066Z,99.99
2018-09-29T08:23:57.702Z,99.99
2018-09-29T08:25:06.595Z,99.99
2018-09-29T08:26:15.231Z,99.99
2018-09-29T08:27:24.135Z,99.99
2018-09-29T08:28:32.785Z,99.99
2018-09-29T08:29:41.683Z,99.99
2018-09-29T08:30:50.329Z,99.99
2018-09-29T08:31:59.221Z,99.99
2018-09-29T08:33:08.133Z,99.99
2018-09-29T08:34:16.768Z,99.99
2018-09-29T08:35:25.680Z,99.99
2018-09-29T08:36:34.316Z,99.99
2018-09-29T08:37:42.999Z,99.99
2018-09-29T08:38:51.597Z,99.99
2018-09-29T08:40:00.239Z,99.99
2018-09-29T08:41:08.876Z,99.99
2018-09-29T08:42:17.517Z,99.99
2018-09-29T08:43:26.157Z,99.99
2018-09-29T08:44:34.802Z,99.99
2018-09-29T08:45:43.445Z,99.99
2018-09-29T08:46:52.639Z,99.99
2018-09-29T08:48:01.247Z,99.99
2018-09-29T08:49:10.155Z,99.99
2018-09-29T08:50:18.798Z,99.99
2018-09-29T08:51:27.435Z,99.99
2018-09-29T08:52:36.345Z,99.99
2018-09-29T08:53:45.014Z,99.99
2018-09-29T08:54:53.633Z,99.99
2018-09-29T08:56:02.543Z,99.99
2018-09-29T08:57:11.188Z,99.99
2018-09-29T08:58:19.827Z,99.99
2018-09-29T08:59:28.479Z,99.99
2018-09-29T09:00:37.119Z,99.99
2018-09-29T09:01:46.027Z,99.99
2018-09-29T09:02:54.664Z,99.99
2018-09-29T09:04:03.338Z,99.99
2018-09-29T09:05:11.947Z,99.99
2018-09-29T09:06:20.588Z,99.99
2018-09-29T09:07:29.502Z,99.99
2018-09-29T09:08:38.141Z,99.99
2018-09-29T09:09:46.792Z,99.99
2018-09-29T09:10:55.431Z,99.99
2018-09-29T09:12:04.339Z,99.99
2018-09-29T09:13:13.242Z,99.99
2018-09-29T09:14:21.893Z,99.99
2018-09-29T09:15:30.792Z,99.99
2018-09-29T09:16:39.435Z,99.99
2018-09-29T09:17:48.070Z,99.99
2018-09-29T09:18:56.713Z,99.99
2018-09-29T09:20:05.623Z,99.99
2018-09-29T09:21:14.273Z,99.99
2018-09-29T09:22:22.914Z,99.99
2018-09-29T09:23:31.599Z,99.99
2018-09-29T09:24:40.190Z,99.99
2018-09-29T09:25:48.827Z,99.99
2018-09-29T09:26:57.472Z,99.99
2018-09-29T09:28:06.110Z,99.99
2018-09-29T09:29:14.752Z,99.99
2018-09-29T09:30:23.500Z,99.99
2018-09-29T09:31:32.040Z,99.99
2018-09-29T09:32:40.676Z,99.99
2018-09-29T09:33:49.323Z,99.99
2018-09-29T09:34:57.961Z,99.99
2018-09-29T09:36:06.606Z,99.99
2018-09-29T09:37:15.246Z,99.99
2018-09-29T09:38:23.882Z,99.99
2018-09-29T09:39:32.526Z,99.99
2018-09-29T09:40:41.160Z,99.99
2018-09-29T09:41:50.076Z,99.99
2018-09-29T09:42:58.711Z,99.08
2018-09-29T09:44:07.356Z,98.99
2018-09-29T09:45:15.996Z,99.95
2018-09-29T09:46:24.909Z,99.27
2018-09-29T09:47:33.545Z,99.66
2018-09-29T09:48:42.453Z,97.75
2018-09-29T09:49:51.359Z,97.75
2018-09-29T09:51:00.009Z,97.85
2018-09-29T09:52:08.649Z,97.46
2018-09-29T09:53:17.290Z,98.99
2018-09-29T09:54:26.187Z,99.46
2018-09-29T09:55:35.102Z,98.7
2018-09-29T09:56:44.014Z,97.85
2018-09-29T09:57:52.915Z,97.85
2018-09-29T09:59:01.558Z,97.85
2018-09-29T10:00:10.454Z,98.22
2018-09-29T10:01:19.099Z,97.46
2018-09-29T10:02:27.737Z,97.85
2018-09-29T10:03:36.388Z,97.85
2018-09-29T10:04:45.021Z,96.89
2018-09-29T10:05:53.932Z,95.94
2018-09-29T10:07:02.829Z,96.32
2018-09-29T10:08:11.742Z,95.37
2018-09-29T10:09:20.377Z,95.7
2018-09-29T10:10:29.020Z,95.46
2018-09-29T10:11:37.661Z,95.46
2018-09-29T10:12:46.679Z,96.17
2018-09-29T10:13:55.321Z,96.75
2018-09-29T10:15:03.959Z,97.61
2018-09-29T10:16:12.598Z,97.8
2018-09-29T10:17:21.543Z,96.37
2018-09-29T10:18:30.168Z,95.22
2018-09-29T10:19:38.805Z,95.22
2018-09-29T10:20:47.454Z,94.56
2018-09-29T10:21:56.350Z,93.7
2018-09-29T10:23:05.000Z,93.41
2018-09-29T10:24:13.639Z,92.36
2018-09-29T10:25:22.284Z,91.41
2018-09-29T10:26:30.917Z,91.12
2018-09-29T10:27:39.666Z,91.88
2018-09-29T10:28:48.211Z,91.5
2018-09-29T10:29:56.855Z,91.78
2018-09-29T10:31:05.491Z,91.98
2018-09-29T10:32:14.151Z,90.26
2018-09-29T10:33:22.803Z,89.69
2018-09-29T10:34:31.441Z,89.02
2018-09-29T10:35:40.083Z,89.21
2018-09-29T10:36:48.735Z,89.31
2018-09-29T10:37:57.372Z,89.78
2018-09-29T10:39:06.020Z,90.45
2018-09-29T10:40:14.655Z,91.12
2018-09-29T10:41:23.309Z,90.73
2018-09-29T10:42:31.949Z,90.97
2018-09-29T10:43:40.593Z,90.21
2018-09-29T10:44:49.226Z,89.45
2018-09-29T10:45:57.876Z,89.25
2018-09-29T10:47:06.519Z,90.59
2018-09-29T10:48:15.161Z,89.35
2018-09-29T10:49:23.795Z,88.87
2018-09-29T10:50:32.448Z,90.21
2018-09-29T10:51:41.621Z,88.68
2018-09-29T10:52:50.323Z,90.4
2018-09-29T10:53:59.188Z,91.36
2018-09-29T10:55:07.821Z,91.83
2018-09-29T10:56:16.471Z,90.02
2018-09-29T10:57:25.111Z,88.87
2018-09-29T10:58:34.032Z,88.06
2018-09-29T10:59:42.665Z,87.92
2018-09-29T11:00:51.584Z,87.87
2018-09-29T11:02:00.223Z,87.87
2018-09-29T11:03:08.877Z,88.44
2018-09-29T11:04:17.511Z,86.72
2018-09-29T11:05:26.156Z,86.15
2018-09-29T11:06:34.796Z,85.67
2018-09-29T11:07:43.451Z,86.15
2018-09-29T11:08:52.354Z,86.05
2018-09-29T11:10:00.992Z,83.95
2018-09-29T11:11:09.632Z,83
2018-09-29T11:12:18.276Z,82.81
2018-09-29T11:13:26.928Z,82.61
2018-09-29T11:14:35.829Z,83.28
2018-09-29T11:15:44.477Z,84.91
2018-09-29T11:16:53.115Z,85.77
2018-09-29T11:18:01.766Z,85.58
2018-09-29T11:19:10.405Z,83.95
2018-09-29T11:20:19.055Z,83
2018-09-29T11:21:27.690Z,83.28
2018-09-29T11:22:36.343Z,83.76
2018-09-29T11:23:44.989Z,84.62
2018-09-29T11:24:53.633Z,83
2018-09-29T11:26:02.532Z,83.28
2018-09-29T11:27:11.177Z,82.71
2018-09-29T11:28:19.943Z,82.71
2018-09-29T11:29:28.469Z,82.61
2018-09-29T11:30:37.115Z,82.42
2018-09-29T11:31:45.747Z,82.71
2018-09-29T11:32:54.926Z,82.84
2018-09-29T11:34:03.571Z,83.13
2018-09-29T11:35:12.219Z,83.04
2018-09-29T11:36:20.857Z,81.51
2018-09-29T11:37:29.500Z,81.51
2018-09-29T11:38:38.143Z,82.18
2018-09-29T11:39:46.794Z,82.37
2018-09-29T11:40:55.431Z,81.7
2018-09-29T11:42:04.081Z,81.51
2018-09-29T11:43:12.716Z,81.79
2018-09-29T11:44:21.363Z,82.18
2018-09-29T11:45:30.006Z,80.93
2018-09-29T11:46:38.651Z,81.03
2018-09-29T11:47:47.293Z,81.03
2018-09-29T11:48:55.936Z,81.13
2018-09-29T11:50:04.852Z,81.79
2018-09-29T11:51:13.495Z,83.9
2018-09-29T11:52:22.144Z,82.37
2018-09-29T11:53:30.783Z,82.84
2018-09-29T11:54:39.431Z,81.89
2018-09-29T11:55:48.074Z,81.89
2018-09-29T11:56:56.721Z,81.7
2018-09-29T11:58:05.363Z,81.7
2018-09-29T11:59:14.281Z,82.18
2018-09-29T12:00:22.919Z,82.84
2018-09-29T12:01:31.565Z,82.84
2018-09-29T12:02:40.211Z,83.99
2018-09-29T12:03:48.849Z,83.61
2018-09-29T12:04:57.495Z,83.33
2018-09-29T12:06:06.190Z,83.8
2018-09-29T12:07:14.896Z,83.9
2018-09-29T12:08:23.968Z,84.38
2018-09-29T12:09:32.611Z,82.94
2018-09-29T12:10:41.259Z,82.75
2018-09-29T12:11:49.904Z,82.94
2018-09-29T12:12:58.542Z,82.18
2018-09-29T12:14:07.186Z,81.6
2018-09-29T12:15:15.832Z,82.08
2018-09-29T12:16:24.481Z,82.46
2018-09-29T12:17:33.391Z,82.84
2018-09-29T12:18:42.038Z,83.04
2018-09-29T12:19:50.679Z,81.84
2018-09-29T12:20:59.330Z,80.3
2018-09-29T12:22:07.974Z,79.93
2018-09-29T12:23:16.613Z,80.5
2018-09-29T12:24:25.260Z,79.35
2018-09-29T12:25:33.898Z,78.68
2018-09-29T12:26:42.547Z,78.49
2018-09-29T12:27:51.192Z,78.87
2018-09-29T12:28:59.837Z,79.25
2018-09-29T12:30:08.478Z,78.2
2018-09-29T12:31:17.122Z,77.25
2018-09-29T12:32:25.771Z,78.2
2018-09-29T12:33:34.416Z,80.11
2018-09-29T12:34:43.064Z,81.84
2018-09-29T12:35:51.701Z,81.45
2018-09-29T12:37:00.460Z,81.07
2018-09-29T12:38:08.988Z,81.79
2018-09-29T12:39:17.905Z,83.04
2018-09-29T12:40:26.548Z,82.37
2018-09-29T12:41:35.195Z,82.37
2018-09-29T12:42:43.906Z,83.33
2018-09-29T12:43:52.744Z,82.84
2018-09-29T12:45:01.401Z,82.7
2018-09-29T12:46:10.044Z,81.6
2018-09-29T12:47:19.226Z,82.51
2018-09-29T12:48:27.867Z,81.55
2018-09-29T12:49:36.523Z,82.03
2018-09-29T12:50:45.159Z,82.41
2018-09-29T12:51:53.862Z,82.7
2018-09-29T12:53:02.825Z,82.98
2018-09-29T12:54:11.478Z,80.98
2018-09-29T12:55:20.119Z,80.88
2018-09-29T12:56:29.031Z,81.07
2018-09-29T12:57:37.665Z,80.98
2018-09-29T12:58:46.352Z,79.44
2018-09-29T12:59:54.959Z,80.3
2018-09-29T13:01:03.882Z,80.5
2018-09-29T13:02:12.794Z,80.59
2018-09-29T13:03:21.430Z,79.73
2018-09-29T13:04:30.081Z,79.54
2018-09-29T13:05:38.719Z,77.15
2018-09-29T13:06:47.636Z,78.01
2018-09-29T13:07:56.276Z,78.49
2018-09-29T13:09:04.924Z,78.2
2018-09-29T13:10:13.562Z,77.92
2018-09-29T13:11:22.215Z,77.44
2018-09-29T13:12:30.851Z,76.57
2018-09-29T13:13:39.501Z,76.1
2018-09-29T13:14:48.143Z,76.39
2018-09-29T13:15:56.795Z,77.06
2018-09-29T13:17:05.438Z,77.63
2018-09-29T13:18:14.078Z,78.3
2018-09-29T13:19:22.719Z,79.06
2018-09-29T13:20:31.362Z,77.25
2018-09-29T13:21:40.017Z,77.15
2018-09-29T13:22:48.665Z,77.44
2018-09-29T13:23:57.305Z,77.44
2018-09-29T13:25:06.209Z,78.2
2018-09-29T13:26:15.134Z,78.01
2018-09-29T13:27:23.774Z,78.39
2018-09-29T13:28:32.424Z,78.87
2018-09-29T13:29:41.105Z,77.44
2018-09-29T13:30:49.710Z,76.29
2018-09-29T13:31:58.386Z,74.66
2018-09-29T13:33:07.351Z,74.95
2018-09-29T13:34:15.991Z,76.39
2018-09-29T13:35:24.636Z,76.67
2018-09-29T13:36:33.279Z,76.29
2018-09-29T13:37:42.187Z,77.44
2018-09-29T13:38:50.837Z,76.96
2018-09-29T13:39:59.471Z,77.06
2018-09-29T13:41:08.115Z,77.63
2018-09-29T13:42:16.755Z,78.01
2018-09-29T13:43:25.403Z,78.78
2018-09-29T13:44:34.043Z,79.31
2018-09-29T13:45:42.980Z,79.41
2018-09-29T13:46:51.593Z,78.64
2018-09-29T13:48:00.515Z,79.22
2018-09-29T13:49:09.154Z,79.41
2018-09-29T13:50:17.804Z,80.84
2018-09-29T13:51:26.445Z,80.74
2018-09-29T13:52:35.095Z,80.36
2018-09-29T13:53:43.826Z,80.46
2018-09-29T13:54:52.378Z,80.55
2018-09-29T13:56:01.287Z,80.17
2018-09-29T13:57:10.468Z,80.27
2018-09-29T13:58:19.113Z,80.46
2018-09-29T13:59:27.757Z,80.84
2018-09-29T14:00:36.666Z,80.88
2018-09-29T14:01:45.306Z,81.79
2018-09-29T14:02:53.960Z,82.18
2018-09-29T14:04:02.606Z,81.13
2018-09-29T14:05:11.250Z,81.7
2018-09-29T14:06:19.890Z,81.32
2018-09-29T14:07:28.537Z,79.6
2018-09-29T14:08:37.240Z,79.22
2018-09-29T14:09:46.411Z,80.4
2018-09-29T14:10:55.050Z,80.88
2018-09-29T14:12:03.696Z,79.79
2018-09-29T14:13:12.342Z,80.55
2018-09-29T14:14:20.994Z,80.36
2018-09-29T14:15:29.634Z,81.03
2018-09-29T14:16:38.277Z,81.03
2018-09-29T14:17:47.188Z,79.31
2018-09-29T14:18:55.832Z,79.41
2018-09-29T14:20:04.559Z,79.41
2018-09-29T14:21:13.385Z,77.97
2018-09-29T14:22:22.031Z,78.07
2018-09-29T14:23:30.672Z,78.93
2018-09-29T14:24:39.320Z,79.79
2018-09-29T14:25:47.962Z,82.18
2018-09-29T14:26:56.608Z,82.56
2018-09-29T14:28:05.252Z,82.46
2018-09-29T14:29:13.889Z,82.28
2018-09-29T14:30:22.533Z,83.04
2018-09-29T14:31:31.176Z,82.56
2018-09-29T14:32:39.821Z,83.33
2018-09-29T14:33:48.469Z,83.51
2018-09-29T14:34:57.105Z,84.09
2018-09-29T14:36:05.748Z,83.99
2018-09-29T14:37:14.679Z,84.09
2018-09-29T14:38:23.577Z,84.14
2018-09-29T14:39:32.219Z,84.14
2018-09-29T14:40:40.861Z,84.05
2018-09-29T14:41:49.552Z,82.52
2018-09-29T14:42:58.153Z,81.99
2018-09-29T14:44:06.792Z,82.42
2018-09-29T14:45:15.520Z,84.23